sensor_id;sensor_type;location;lat;lon;timestamp;temperature;humidity
23681;DHT22;62915;50.832;4.462;2022-09-03T00:02:23;22.90;84.90
23681;DHT22;62915;50.832;4.462;2022-09-03T00:10:13;22.90;84.50
23681;DHT22;62915;50.832;4.462;2022-09-03T00:12:42;22.80;84.40
23681;DHT22;62915;50.832;4.462;2022-09-03T00:22:49;22.90;84.50
23681;DHT22;62915;50.832;4.462;2022-09-03T00:28:05;22.90;84.20
23681;DHT22;62915;50.832;4.462;2022-09-03T00:30:32;22.90;84.50
23681;DHT22;62915;50.832;4.462;2022-09-03T00:33:18;22.80;84.10
23681;DHT22;62915;50.832;4.462;2022-09-03T00:35:50;22.80;84.10
23681;DHT22;62915;50.832;4.462;2022-09-03T00:38:18;22.90;84.90
23681;DHT22;62915;50.832;4.462;2022-09-03T00:44:02;22.90;84.80
23681;DHT22;62915;50.832;4.462;2022-09-03T00:46:44;22.90;84.20
23681;DHT22;62915;50.832;4.462;2022-09-03T00:57:49;22.90;84.20
23681;DHT22;62915;50.832;4.462;2022-09-03T01:00:19;22.90;86.80
23681;DHT22;62915;50.832;4.462;2022-09-03T01:03:03;22.90;86.50
23681;DHT22;62915;50.832;4.462;2022-09-03T01:11:38;22.80;86.50
23681;DHT22;62915;50.832;4.462;2022-09-03T01:17:12;22.90;86.40
23681;DHT22;62915;50.832;4.462;2022-09-03T01:20:07;22.90;87.20
23681;DHT22;62915;50.832;4.462;2022-09-03T01:31:31;22.80;89.30
23681;DHT22;62915;50.832;4.462;2022-09-03T01:39:26;22.70;89.20
23681;DHT22;62915;50.832;4.462;2022-09-03T01:42:28;22.60;88.80
23681;DHT22;62915;50.832;4.462;2022-09-03T01:53:08;22.40;92.10
23681;DHT22;62915;50.832;4.462;2022-09-03T01:58:48;22.40;91.40
23681;DHT22;62915;50.832;4.462;2022-09-03T02:01:23;22.30;92.40
23681;DHT22;62915;50.832;4.462;2022-09-03T02:03:50;22.30;92.20
23681;DHT22;62915;50.832;4.462;2022-09-03T02:06:16;22.20;92.30
23681;DHT22;62915;50.832;4.462;2022-09-03T02:08:45;22.20;92.70
23681;DHT22;62915;50.832;4.462;2022-09-03T02:11:11;22.20;92.90
23681;DHT22;62915;50.832;4.462;2022-09-03T02:13:41;22.20;92.70
23681;DHT22;62915;50.832;4.462;2022-09-03T02:16:13;22.20;93.60
23681;DHT22;62915;50.832;4.462;2022-09-03T02:19:02;22.20;93.80
23681;DHT22;62915;50.832;4.462;2022-09-03T02:21:34;22.20;94.00
23681;DHT22;62915;50.832;4.462;2022-09-03T02:24:03;22.10;94.30
23681;DHT22;62915;50.832;4.462;2022-09-03T02:26:29;22.10;94.70
23681;DHT22;62915;50.832;4.462;2022-09-03T02:28:57;22.10;94.80
23681;DHT22;62915;50.832;4.462;2022-09-03T02:31:23;22.10;94.90
23681;DHT22;62915;50.832;4.462;2022-09-03T02:33:50;22.00;95.30
23681;DHT22;62915;50.832;4.462;2022-09-03T02:36:19;22.10;95.20
23681;DHT22;62915;50.832;4.462;2022-09-03T02:38:46;22.00;95.30
23681;DHT22;62915;50.832;4.462;2022-09-03T02:41:12;22.00;95.40
23681;DHT22;62915;50.832;4.462;2022-09-03T02:46:37;22.00;95.50
23681;DHT22;62915;50.832;4.462;2022-09-03T02:49:03;22.00;96.80
23681;DHT22;62915;50.832;4.462;2022-09-03T02:51:38;21.90;96.80
23681;DHT22;62915;50.832;4.462;2022-09-03T02:54:04;21.90;97.10
23681;DHT22;62915;50.832;4.462;2022-09-03T02:56:31;21.90;96.80
23681;DHT22;62915;50.832;4.462;2022-09-03T02:58:56;21.80;97.30
23681;DHT22;62915;50.832;4.462;2022-09-03T03:01:23;21.80;97.50
23681;DHT22;62915;50.832;4.462;2022-09-03T03:03:49;21.80;98.00
23681;DHT22;62915;50.832;4.462;2022-09-03T03:06:15;21.80;98.40
23681;DHT22;62915;50.832;4.462;2022-09-03T03:08:40;21.80;98.70
23681;DHT22;62915;50.832;4.462;2022-09-03T03:11:08;21.80;98.80
23681;DHT22;62915;50.832;4.462;2022-09-03T03:13:34;21.80;98.90
23681;DHT22;62915;50.832;4.462;2022-09-03T03:16:02;21.80;99.20
23681;DHT22;62915;50.832;4.462;2022-09-03T03:18:29;21.80;99.10
23681;DHT22;62915;50.832;4.462;2022-09-03T03:20:54;21.80;99.10
23681;DHT22;62915;50.832;4.462;2022-09-03T03:23:20;21.80;99.10
23681;DHT22;62915;50.832;4.462;2022-09-03T03:25:46;21.90;99.20
23681;DHT22;62915;50.832;4.462;2022-09-03T03:28:12;21.90;99.60
23681;DHT22;62915;50.832;4.462;2022-09-03T03:30:43;21.90;99.90
23681;DHT22;62915;50.832;4.462;2022-09-03T03:33:11;21.90;99.60
23681;DHT22;62915;50.832;4.462;2022-09-03T03:35:37;21.80;99.60
23681;DHT22;62915;50.832;4.462;2022-09-03T03:38:05;21.70;99.90
23681;DHT22;62915;50.832;4.462;2022-09-03T03:40:31;21.60;99.90
23681;DHT22;62915;50.832;4.462;2022-09-03T03:42:57;21.60;99.90
23681;DHT22;62915;50.832;4.462;2022-09-03T03:45:23;21.50;99.90
23681;DHT22;62915;50.832;4.462;2022-09-03T03:47:48;21.50;99.90
23681;DHT22;62915;50.832;4.462;2022-09-03T03:50:14;21.40;99.90
23681;DHT22;62915;50.832;4.462;2022-09-03T03:52:41;21.40;99.90
23681;DHT22;62915;50.832;4.462;2022-09-03T03:55:07;21.30;99.90
23681;DHT22;62915;50.832;4.462;2022-09-03T03:57:33;21.20;99.90
23681;DHT22;62915;50.832;4.462;2022-09-03T03:59:59;21.20;99.90
23681;DHT22;62915;50.832;4.462;2022-09-03T04:02:25;21.20;99.90
23681;DHT22;62915;50.832;4.462;2022-09-03T04:04:50;21.10;99.90
23681;DHT22;62915;50.832;4.462;2022-09-03T04:07:16;21.10;99.90
23681;DHT22;62915;50.832;4.462;2022-09-03T04:09:42;21.00;99.90
23681;DHT22;62915;50.832;4.462;2022-09-03T04:12:07;21.00;99.90
23681;DHT22;62915;50.832;4.462;2022-09-03T04:14:34;20.90;99.90
23681;DHT22;62915;50.832;4.462;2022-09-03T04:17:01;20.80;99.90
23681;DHT22;62915;50.832;4.462;2022-09-03T04:19:27;20.70;99.90
23681;DHT22;62915;50.832;4.462;2022-09-03T04:21:54;20.70;99.90
23681;DHT22;62915;50.832;4.462;2022-09-03T04:24:21;20.70;99.90
23681;DHT22;62915;50.832;4.462;2022-09-03T04:26:46;20.70;99.90
23681;DHT22;62915;50.832;4.462;2022-09-03T04:29:15;20.70;99.90
23681;DHT22;62915;50.832;4.462;2022-09-03T04:31:42;20.80;99.90
23681;DHT22;62915;50.832;4.462;2022-09-03T04:34:28;20.80;99.90
23681;DHT22;62915;50.832;4.462;2022-09-03T04:36:53;20.80;99.90
23681;DHT22;62915;50.832;4.462;2022-09-03T04:39:21;20.70;99.90
23681;DHT22;62915;50.832;4.462;2022-09-03T04:41:47;20.70;99.90
23681;DHT22;62915;50.832;4.462;2022-09-03T04:44:13;20.70;99.90
23681;DHT22;62915;50.832;4.462;2022-09-03T04:46:38;20.70;99.90
23681;DHT22;62915;50.832;4.462;2022-09-03T04:49:05;20.70;99.90
23681;DHT22;62915;50.832;4.462;2022-09-03T04:51:34;20.60;99.90
23681;DHT22;62915;50.832;4.462;2022-09-03T04:54:01;20.50;99.90
23681;DHT22;62915;50.832;4.462;2022-09-03T04:56:30;20.50;99.90
23681;DHT22;62915;50.832;4.462;2022-09-03T04:59:01;20.50;99.90
23681;DHT22;62915;50.832;4.462;2022-09-03T05:01:29;20.50;99.90
23681;DHT22;62915;50.832;4.462;2022-09-03T05:03:55;20.50;99.90
23681;DHT22;62915;50.832;4.462;2022-09-03T05:06:22;20.50;99.90
23681;DHT22;62915;50.832;4.462;2022-09-03T05:08:51;20.60;99.90
23681;DHT22;62915;50.832;4.462;2022-09-03T05:11:17;20.50;99.90
23681;DHT22;62915;50.832;4.462;2022-09-03T05:13:47;20.60;99.90
23681;DHT22;62915;50.832;4.462;2022-09-03T05:16:14;20.50;99.90
23681;DHT22;62915;50.832;4.462;2022-09-03T05:18:39;20.50;99.90
23681;DHT22;62915;50.832;4.462;2022-09-03T05:21:08;20.50;99.90
23681;DHT22;62915;50.832;4.462;2022-09-03T05:23:36;20.50;99.90
23681;DHT22;62915;50.832;4.462;2022-09-03T05:26:04;20.50;99.90
23681;DHT22;62915;50.832;4.462;2022-09-03T05:28:34;20.50;99.90
23681;DHT22;62915;50.832;4.462;2022-09-03T05:31:02;20.50;99.90
23681;DHT22;62915;50.832;4.462;2022-09-03T05:33:28;20.50;99.90
23681;DHT22;62915;50.832;4.462;2022-09-03T05:36:04;20.50;99.90
23681;DHT22;62915;50.832;4.462;2022-09-03T05:38:30;20.50;99.90
23681;DHT22;62915;50.832;4.462;2022-09-03T05:41:00;20.50;99.90
23681;DHT22;62915;50.832;4.462;2022-09-03T05:43:27;20.50;99.90
23681;DHT22;62915;50.832;4.462;2022-09-03T05:46:17;20.50;99.90
23681;DHT22;62915;50.832;4.462;2022-09-03T05:48:42;20.40;99.90
23681;DHT22;62915;50.832;4.462;2022-09-03T05:51:13;20.40;99.90
23681;DHT22;62915;50.832;4.462;2022-09-03T05:53:41;20.40;99.90
23681;DHT22;62915;50.832;4.462;2022-09-03T05:56:10;20.40;99.90
23681;DHT22;62915;50.832;4.462;2022-09-03T05:58:42;20.40;99.90
23681;DHT22;62915;50.832;4.462;2022-09-03T06:01:25;20.50;99.90
23681;DHT22;62915;50.832;4.462;2022-09-03T06:06:22;20.50;99.90
23681;DHT22;62915;50.832;4.462;2022-09-03T06:08:50;20.60;99.90
23681;DHT22;62915;50.832;4.462;2022-09-03T06:11:16;20.60;99.90
23681;DHT22;62915;50.832;4.462;2022-09-03T06:13:42;20.60;99.90
23681;DHT22;62915;50.832;4.462;2022-09-03T06:16:08;20.60;99.90
23681;DHT22;62915;50.832;4.462;2022-09-03T06:18:34;20.60;99.90
23681;DHT22;62915;50.832;4.462;2022-09-03T06:21:02;20.60;99.90
23681;DHT22;62915;50.832;4.462;2022-09-03T06:23:28;20.80;99.90
23681;DHT22;62915;50.832;4.462;2022-09-03T06:26:09;21.00;99.90
23681;DHT22;62915;50.832;4.462;2022-09-03T06:28:37;21.30;99.90
23681;DHT22;62915;50.832;4.462;2022-09-03T06:31:04;21.50;99.90
23681;DHT22;62915;50.832;4.462;2022-09-03T06:33:32;21.70;99.90
23681;DHT22;62915;50.832;4.462;2022-09-03T06:36:00;21.80;99.90
23681;DHT22;62915;50.832;4.462;2022-09-03T06:38:27;22.00;99.90
23681;DHT22;62915;50.832;4.462;2022-09-03T06:41:00;22.10;99.90
23681;DHT22;62915;50.832;4.462;2022-09-03T06:43:28;22.20;99.90
23681;DHT22;62915;50.832;4.462;2022-09-03T06:45:58;22.30;99.90
23681;DHT22;62915;50.832;4.462;2022-09-03T06:48:25;22.30;99.90
23681;DHT22;62915;50.832;4.462;2022-09-03T06:53:25;22.30;99.90
23681;DHT22;62915;50.832;4.462;2022-09-03T06:56:00;22.40;99.90
23681;DHT22;62915;50.832;4.462;2022-09-03T06:58:34;22.40;99.90
23681;DHT22;62915;50.832;4.462;2022-09-03T07:01:10;22.40;99.90
23681;DHT22;62915;50.832;4.462;2022-09-03T07:03:38;22.30;99.90
23681;DHT22;62915;50.832;4.462;2022-09-03T07:06:12;22.30;99.90
23681;DHT22;62915;50.832;4.462;2022-09-03T07:08:39;22.20;99.90
23681;DHT22;62915;50.832;4.462;2022-09-03T07:11:09;22.20;99.90
23681;DHT22;62915;50.832;4.462;2022-09-03T07:13:36;22.20;99.90
23681;DHT22;62915;50.832;4.462;2022-09-03T07:16:15;22.20;99.90
23681;DHT22;62915;50.832;4.462;2022-09-03T07:18:41;22.20;99.90
23681;DHT22;62915;50.832;4.462;2022-09-03T07:21:18;22.30;99.90
23681;DHT22;62915;50.832;4.462;2022-09-03T07:23:44;22.30;99.90
23681;DHT22;62915;50.832;4.462;2022-09-03T07:26:16;22.30;99.90
23681;DHT22;62915;50.832;4.462;2022-09-03T07:28:42;22.40;99.90
23681;DHT22;62915;50.832;4.462;2022-09-03T07:33:39;22.60;99.90
23681;DHT22;62915;50.832;4.462;2022-09-03T07:36:15;22.60;99.90
23681;DHT22;62915;50.832;4.462;2022-09-03T07:38:43;22.70;99.90
23681;DHT22;62915;50.832;4.462;2022-09-03T07:41:10;22.70;99.90
23681;DHT22;62915;50.832;4.462;2022-09-03T07:43:38;22.70;99.90
23681;DHT22;62915;50.832;4.462;2022-09-03T07:46:08;22.70;99.90
23681;DHT22;62915;50.832;4.462;2022-09-03T07:48:39;22.80;99.90
23681;DHT22;62915;50.832;4.462;2022-09-03T07:51:06;22.70;99.90
23681;DHT22;62915;50.832;4.462;2022-09-03T07:53:32;22.70;99.90
23681;DHT22;62915;50.832;4.462;2022-09-03T07:56:06;22.70;99.90
23681;DHT22;62915;50.832;4.462;2022-09-03T07:58:33;22.80;99.90
23681;DHT22;62915;50.832;4.462;2022-09-03T08:01:04;22.80;99.90
23681;DHT22;62915;50.832;4.462;2022-09-03T08:03:30;22.90;99.90
23681;DHT22;62915;50.832;4.462;2022-09-03T08:06:00;22.90;99.90
23681;DHT22;62915;50.832;4.462;2022-09-03T08:08:26;22.90;99.90
23681;DHT22;62915;50.832;4.462;2022-09-03T08:10:52;22.80;99.90
23681;DHT22;62915;50.832;4.462;2022-09-03T08:13:17;22.80;99.90
23681;DHT22;62915;50.832;4.462;2022-09-03T08:15:53;22.90;99.90
23681;DHT22;62915;50.832;4.462;2022-09-03T08:18:19;22.90;99.90
23681;DHT22;62915;50.832;4.462;2022-09-03T08:20:44;22.80;99.90
23681;DHT22;62915;50.832;4.462;2022-09-03T08:23:10;22.80;99.90
23681;DHT22;62915;50.832;4.462;2022-09-03T08:25:35;22.70;99.90
23681;DHT22;62915;50.832;4.462;2022-09-03T08:28:02;22.90;99.90
23681;DHT22;62915;50.832;4.462;2022-09-03T08:30:28;23.00;99.90
23681;DHT22;62915;50.832;4.462;2022-09-03T08:32:54;23.10;99.90
23681;DHT22;62915;50.832;4.462;2022-09-03T08:35:20;23.30;99.90
23681;DHT22;62915;50.832;4.462;2022-09-03T08:37:47;23.30;99.90
23681;DHT22;62915;50.832;4.462;2022-09-03T08:40:16;23.40;99.90
23681;DHT22;62915;50.832;4.462;2022-09-03T08:42:45;23.40;99.90
23681;DHT22;62915;50.832;4.462;2022-09-03T08:45:17;23.50;99.90
23681;DHT22;62915;50.832;4.462;2022-09-03T08:48:09;23.50;99.90
23681;DHT22;62915;50.832;4.462;2022-09-03T08:50:49;23.50;99.90
23681;DHT22;62915;50.832;4.462;2022-09-03T08:53:48;23.60;99.90
23681;DHT22;62915;50.832;4.462;2022-09-03T08:56:29;23.60;99.90
23681;DHT22;62915;50.832;4.462;2022-09-03T08:58:56;23.50;99.90
23681;DHT22;62915;50.832;4.462;2022-09-03T09:07:10;23.60;99.90
23681;DHT22;62915;50.832;4.462;2022-09-03T09:13:01;23.90;99.90
23681;DHT22;62915;50.832;4.462;2022-09-03T09:15:33;24.00;99.90
23681;DHT22;62915;50.832;4.462;2022-09-03T09:20:50;24.20;99.90
23681;DHT22;62915;50.832;4.462;2022-09-03T09:23:30;24.30;99.90
23681;DHT22;62915;50.832;4.462;2022-09-03T09:25:59;24.40;99.90
23681;DHT22;62915;50.832;4.462;2022-09-03T09:28:32;24.40;99.90
23681;DHT22;62915;50.832;4.462;2022-09-03T09:30:59;24.50;99.90
23681;DHT22;62915;50.832;4.462;2022-09-03T09:33:29;24.70;99.90
23681;DHT22;62915;50.832;4.462;2022-09-03T09:35:58;24.90;99.90
23681;DHT22;62915;50.832;4.462;2022-09-03T09:38:29;24.90;99.90
23681;DHT22;62915;50.832;4.462;2022-09-03T09:40:55;24.70;99.90
23681;DHT22;62915;50.832;4.462;2022-09-03T09:43:22;24.70;99.90
23681;DHT22;62915;50.832;4.462;2022-09-03T09:45:52;24.70;99.90
23681;DHT22;62915;50.832;4.462;2022-09-03T09:48:30;24.60;99.90
23681;DHT22;62915;50.832;4.462;2022-09-03T09:51:18;24.50;99.90
23681;DHT22;62915;50.832;4.462;2022-09-03T09:53:44;24.50;99.90
23681;DHT22;62915;50.832;4.462;2022-09-03T09:56:23;24.30;99.90
23681;DHT22;62915;50.832;4.462;2022-09-03T09:58:49;24.30;99.90
23681;DHT22;62915;50.832;4.462;2022-09-03T10:01:26;24.30;99.90
23681;DHT22;62915;50.832;4.462;2022-09-03T10:04:00;24.40;99.90
23681;DHT22;62915;50.832;4.462;2022-09-03T10:06:32;24.50;99.90
23681;DHT22;62915;50.832;4.462;2022-09-03T10:09:25;24.60;99.90
23681;DHT22;62915;50.832;4.462;2022-09-03T10:14:52;24.50;99.90
23681;DHT22;62915;50.832;4.462;2022-09-03T10:20:32;24.50;99.90
23681;DHT22;62915;50.832;4.462;2022-09-03T10:25:56;24.40;99.90
23681;DHT22;62915;50.832;4.462;2022-09-03T10:28:28;24.30;99.90
23681;DHT22;62915;50.832;4.462;2022-09-03T10:45:39;24.90;99.90
23681;DHT22;62915;50.832;4.462;2022-09-03T10:48:36;25.00;99.90
23681;DHT22;62915;50.832;4.462;2022-09-03T10:51:10;25.10;99.90
23681;DHT22;62915;50.832;4.462;2022-09-03T10:54:10;25.20;99.90
23681;DHT22;62915;50.832;4.462;2022-09-03T10:56:56;25.40;99.90
23681;DHT22;62915;50.832;4.462;2022-09-03T11:02:55;25.80;99.90
23681;DHT22;62915;50.832;4.462;2022-09-03T11:05:55;26.00;99.90
23681;DHT22;62915;50.832;4.462;2022-09-03T11:11:19;26.60;99.90
23681;DHT22;62915;50.832;4.462;2022-09-03T11:13:59;26.90;99.90
23681;DHT22;62915;50.832;4.462;2022-09-03T11:16:53;27.30;99.90
23681;DHT22;62915;50.832;4.462;2022-09-03T11:20:20;27.50;99.90
23681;DHT22;62915;50.832;4.462;2022-09-03T11:22:21;27.50;99.90
23681;DHT22;62915;50.832;4.462;2022-09-03T11:24:55;27.50;99.90
23681;DHT22;62915;50.832;4.462;2022-09-03T11:30:10;27.50;99.90
23681;DHT22;62915;50.832;4.462;2022-09-03T11:38:01;27.50;99.90
23681;DHT22;62915;50.832;4.462;2022-09-03T11:40:35;27.30;99.90
23681;DHT22;62915;50.832;4.462;2022-09-03T11:43:23;27.20;99.90
23681;DHT22;62915;50.832;4.462;2022-09-03T11:46:05;27.10;99.90
23681;DHT22;62915;50.832;4.462;2022-09-03T11:48:42;27.00;99.90
23681;DHT22;62915;50.832;4.462;2022-09-03T11:56:27;26.60;99.90
23681;DHT22;62915;50.832;4.462;2022-09-03T12:04:13;26.40;99.90
23681;DHT22;62915;50.832;4.462;2022-09-03T12:07:07;26.40;99.90
23681;DHT22;62915;50.832;4.462;2022-09-03T12:20:37;26.70;99.90
23681;DHT22;62915;50.832;4.462;2022-09-03T12:23:03;26.80;99.90
23681;DHT22;62915;50.832;4.462;2022-09-03T12:25:29;26.70;99.90
23681;DHT22;62915;50.832;4.462;2022-09-03T12:27:55;26.80;99.90
23681;DHT22;62915;50.832;4.462;2022-09-03T12:30:23;27.00;99.90
23681;DHT22;62915;50.832;4.462;2022-09-03T12:32:49;27.30;99.90
23681;DHT22;62915;50.832;4.462;2022-09-03T12:35:22;27.70;99.90
23681;DHT22;62915;50.832;4.462;2022-09-03T12:37:51;27.90;99.90
23681;DHT22;62915;50.832;4.462;2022-09-03T12:40:22;28.20;99.90
23681;DHT22;62915;50.832;4.462;2022-09-03T12:42:49;28.30;99.90
23681;DHT22;62915;50.832;4.462;2022-09-03T12:45:19;28.20;99.90
23681;DHT22;62915;50.832;4.462;2022-09-03T12:47:45;28.20;99.90
23681;DHT22;62915;50.832;4.462;2022-09-03T12:50:17;28.30;99.90
23681;DHT22;62915;50.832;4.462;2022-09-03T12:52:50;28.40;99.90
23681;DHT22;62915;50.832;4.462;2022-09-03T12:55:35;28.30;99.90
23681;DHT22;62915;50.832;4.462;2022-09-03T13:00:37;28.50;99.90
23681;DHT22;62915;50.832;4.462;2022-09-03T13:06:08;28.60;99.90
23681;DHT22;62915;50.832;4.462;2022-09-03T13:08:46;28.50;99.90
23681;DHT22;62915;50.832;4.462;2022-09-03T13:11:17;28.30;99.90
23681;DHT22;62915;50.832;4.462;2022-09-03T13:27:24;28.70;99.90
23681;DHT22;62915;50.832;4.462;2022-09-03T13:30:13;28.60;99.90
23681;DHT22;62915;50.832;4.462;2022-09-03T13:32:58;28.70;99.90
23681;DHT22;62915;50.832;4.462;2022-09-03T13:36:04;28.70;99.90
23681;DHT22;62915;50.832;4.462;2022-09-03T13:38:53;28.80;99.90
23681;DHT22;62915;50.832;4.462;2022-09-03T13:41:54;28.70;99.90
23681;DHT22;62915;50.832;4.462;2022-09-03T13:44:46;28.60;99.30
23681;DHT22;62915;50.832;4.462;2022-09-03T13:53:04;28.50;99.90
23681;DHT22;62915;50.832;4.462;2022-09-03T13:55:45;28.70;99.20
23681;DHT22;62915;50.832;4.462;2022-09-03T14:06:08;28.80;99.90
23681;DHT22;62915;50.832;4.462;2022-09-03T14:14:36;28.80;98.10
23681;DHT22;62915;50.832;4.462;2022-09-03T14:20:03;28.40;98.00
23681;DHT22;62915;50.832;4.462;2022-09-03T14:25:39;28.30;98.40
23681;DHT22;62915;50.832;4.462;2022-09-03T14:55:10;27.40;99.50
23681;DHT22;62915;50.832;4.462;2022-09-03T15:00:35;27.40;98.90
23681;DHT22;62915;50.832;4.462;2022-09-03T15:03:48;27.50;99.60
23681;DHT22;62915;50.832;4.462;2022-09-03T15:12:07;28.00;99.00
23681;DHT22;62915;50.832;4.462;2022-09-03T15:14:55;28.00;98.80
23681;DHT22;62915;50.832;4.462;2022-09-03T15:38:58;27.40;99.90
23681;DHT22;62915;50.832;4.462;2022-09-03T15:44:07;27.20;99.90
23681;DHT22;62915;50.832;4.462;2022-09-03T15:49:07;27.30;99.90
23681;DHT22;62915;50.832;4.462;2022-09-03T15:51:51;27.20;99.90
23681;DHT22;62915;50.832;4.462;2022-09-03T15:54:35;27.20;99.90
23681;DHT22;62915;50.832;4.462;2022-09-03T16:00:12;27.30;99.90
23681;DHT22;62915;50.832;4.462;2022-09-03T16:03:00;27.20;99.90
23681;DHT22;62915;50.832;4.462;2022-09-03T16:08:18;27.10;99.90
23681;DHT22;62915;50.832;4.462;2022-09-03T16:14:03;27.00;99.90
23681;DHT22;62915;50.832;4.462;2022-09-03T16:16:40;26.90;99.90
23681;DHT22;62915;50.832;4.462;2022-09-03T16:22:06;26.70;99.90
23681;DHT22;62915;50.832;4.462;2022-09-03T16:27:22;26.40;99.90
23681;DHT22;62915;50.832;4.462;2022-09-03T16:30:11;26.30;99.90
23681;DHT22;62915;50.832;4.462;2022-09-03T16:32:52;26.30;99.90
23681;DHT22;62915;50.832;4.462;2022-09-03T16:43:44;26.20;99.90
23681;DHT22;62915;50.832;4.462;2022-09-03T16:57:32;26.50;99.90
23681;DHT22;62915;50.832;4.462;2022-09-03T17:00:09;26.40;99.90
23681;DHT22;62915;50.832;4.462;2022-09-03T17:08:17;26.20;99.90
23681;DHT22;62915;50.832;4.462;2022-09-03T17:14:17;25.90;99.90
23681;DHT22;62915;50.832;4.462;2022-09-03T17:25:20;25.80;99.90
23681;DHT22;62915;50.832;4.462;2022-09-03T17:27:55;25.70;99.90
23681;DHT22;62915;50.832;4.462;2022-09-03T17:30:51;25.70;99.90
23681;DHT22;62915;50.832;4.462;2022-09-03T17:33:56;25.70;99.90
23681;DHT22;62915;50.832;4.462;2022-09-03T17:36:27;25.70;99.90
23681;DHT22;62915;50.832;4.462;2022-09-03T17:41:56;25.60;99.90
23681;DHT22;62915;50.832;4.462;2022-09-03T17:44:55;25.60;99.90
23681;DHT22;62915;50.832;4.462;2022-09-03T17:50:18;25.50;99.90
23681;DHT22;62915;50.832;4.462;2022-09-03T17:55:36;25.30;99.90
23681;DHT22;62915;50.832;4.462;2022-09-03T17:58:23;25.30;99.90
23681;DHT22;62915;50.832;4.462;2022-09-03T18:03:59;25.30;99.90
23681;DHT22;62915;50.832;4.462;2022-09-03T18:14:37;25.10;99.90
23681;DHT22;62915;50.832;4.462;2022-09-03T18:17:30;25.00;99.90
23681;DHT22;62915;50.832;4.462;2022-09-03T18:20:10;24.90;99.90
23681;DHT22;62915;50.832;4.462;2022-09-03T18:25:46;24.70;99.90
23681;DHT22;62915;50.832;4.462;2022-09-03T18:28:39;24.60;99.90
23681;DHT22;62915;50.832;4.462;2022-09-03T18:31:26;24.50;99.90
23681;DHT22;62915;50.832;4.462;2022-09-03T18:34:10;24.40;99.90
23681;DHT22;62915;50.832;4.462;2022-09-03T18:36:56;24.20;99.90
23681;DHT22;62915;50.832;4.462;2022-09-03T18:39:40;24.10;99.90
23681;DHT22;62915;50.832;4.462;2022-09-03T18:42:34;24.00;99.90
23681;DHT22;62915;50.832;4.462;2022-09-03T18:45:48;24.10;99.90
23681;DHT22;62915;50.832;4.462;2022-09-03T18:52:20;24.00;99.90
23681;DHT22;62915;50.832;4.462;2022-09-03T18:55:28;23.90;99.90
23681;DHT22;62915;50.832;4.462;2022-09-03T18:58:40;23.90;99.90
23681;DHT22;62915;50.832;4.462;2022-09-03T19:01:33;23.90;99.90
23681;DHT22;62915;50.832;4.462;2022-09-03T19:13:23;23.70;99.90
23681;DHT22;62915;50.832;4.462;2022-09-03T19:19:33;23.70;99.90
23681;DHT22;62915;50.832;4.462;2022-09-03T19:25:14;23.80;99.90
23681;DHT22;62915;50.832;4.462;2022-09-03T19:28:17;23.90;99.90
23681;DHT22;62915;50.832;4.462;2022-09-03T19:31:31;23.90;99.90
23681;DHT22;62915;50.832;4.462;2022-09-03T19:47:08;23.60;99.90
23681;DHT22;62915;50.832;4.462;2022-09-03T19:53:09;23.50;99.90
23681;DHT22;62915;50.832;4.462;2022-09-03T19:55:57;23.40;99.90
23681;DHT22;62915;50.832;4.462;2022-09-03T19:59:18;23.40;99.90
23681;DHT22;62915;50.832;4.462;2022-09-03T20:02:03;23.40;99.90
23681;DHT22;62915;50.832;4.462;2022-09-03T20:04:54;23.30;99.90
23681;DHT22;62915;50.832;4.462;2022-09-03T20:07:39;23.30;99.90
23681;DHT22;62915;50.832;4.462;2022-09-03T20:10:24;23.30;99.90
23681;DHT22;62915;50.832;4.462;2022-09-03T20:12:59;23.40;99.90
23681;DHT22;62915;50.832;4.462;2022-09-03T20:15:40;23.30;99.90
23681;DHT22;62915;50.832;4.462;2022-09-03T20:23:50;23.30;99.90
23681;DHT22;62915;50.832;4.462;2022-09-03T20:29:29;23.20;99.90
23681;DHT22;62915;50.832;4.462;2022-09-03T20:37:44;22.90;99.90
23681;DHT22;62915;50.832;4.462;2022-09-03T20:56:27;22.80;99.90
23681;DHT22;62915;50.832;4.462;2022-09-03T21:01:43;22.80;99.90
23681;DHT22;62915;50.832;4.462;2022-09-03T21:07:09;22.80;99.90
23681;DHT22;62915;50.832;4.462;2022-09-03T21:12:30;22.70;99.90
23681;DHT22;62915;50.832;4.462;2022-09-03T21:15:17;22.70;99.90
23681;DHT22;62915;50.832;4.462;2022-09-03T21:26:38;22.40;99.90
23681;DHT22;62915;50.832;4.462;2022-09-03T21:29:18;22.30;99.90
23681;DHT22;62915;50.832;4.462;2022-09-03T21:32:16;22.30;99.90
23681;DHT22;62915;50.832;4.462;2022-09-03T21:34:54;22.20;99.90
23681;DHT22;62915;50.832;4.462;2022-09-03T21:37:21;22.20;99.90
23681;DHT22;62915;50.832;4.462;2022-09-03T21:39:53;22.20;99.90
23681;DHT22;62915;50.832;4.462;2022-09-03T21:42:53;22.20;99.90
23681;DHT22;62915;50.832;4.462;2022-09-03T21:45:41;22.30;99.90
23681;DHT22;62915;50.832;4.462;2022-09-03T21:48:14;22.30;99.90
23681;DHT22;62915;50.832;4.462;2022-09-03T21:50:45;22.20;99.90
23681;DHT22;62915;50.832;4.462;2022-09-03T22:01:28;22.20;99.90
23681;DHT22;62915;50.832;4.462;2022-09-03T22:03:55;22.30;99.90
23681;DHT22;62915;50.832;4.462;2022-09-03T22:06:42;22.20;99.90
23681;DHT22;62915;50.832;4.462;2022-09-03T22:09:16;22.10;99.90
23681;DHT22;62915;50.832;4.462;2022-09-03T22:12:09;22.10;99.90
23681;DHT22;62915;50.832;4.462;2022-09-03T22:14:41;22.10;99.90
23681;DHT22;62915;50.832;4.462;2022-09-03T22:19:42;22.10;99.90
23681;DHT22;62915;50.832;4.462;2022-09-03T22:22:33;22.10;99.90
23681;DHT22;62915;50.832;4.462;2022-09-03T22:25:13;22.20;99.90
23681;DHT22;62915;50.832;4.462;2022-09-03T22:27:49;22.10;99.90
23681;DHT22;62915;50.832;4.462;2022-09-03T22:30:18;22.10;99.90
23681;DHT22;62915;50.832;4.462;2022-09-03T22:43:45;22.20;99.90
23681;DHT22;62915;50.832;4.462;2022-09-03T22:46:18;22.20;99.90
23681;DHT22;62915;50.832;4.462;2022-09-03T22:54:25;22.20;99.90
23681;DHT22;62915;50.832;4.462;2022-09-03T22:56:53;22.20;99.90
23681;DHT22;62915;50.832;4.462;2022-09-03T22:59:28;22.00;99.90
23681;DHT22;62915;50.832;4.462;2022-09-03T23:02:13;22.00;99.90
23681;DHT22;62915;50.832;4.462;2022-09-03T23:04:56;22.00;99.90
23681;DHT22;62915;50.832;4.462;2022-09-03T23:07:38;21.90;99.90
23681;DHT22;62915;50.832;4.462;2022-09-03T23:10:11;21.80;99.90
23681;DHT22;62915;50.832;4.462;2022-09-03T23:12:58;21.80;99.90
23681;DHT22;62915;50.832;4.462;2022-09-03T23:15:28;21.80;99.90
23681;DHT22;62915;50.832;4.462;2022-09-03T23:18:09;21.80;99.90
23681;DHT22;62915;50.832;4.462;2022-09-03T23:20:46;21.70;99.90
23681;DHT22;62915;50.832;4.462;2022-09-03T23:23:30;21.60;99.90
23681;DHT22;62915;50.832;4.462;2022-09-03T23:26:15;21.60;99.90
23681;DHT22;62915;50.832;4.462;2022-09-03T23:29:16;21.60;99.90
23681;DHT22;62915;50.832;4.462;2022-09-03T23:31:42;21.60;99.90